createdAt,value
2018-05-09T00:00:19.991Z,4.23
2018-05-09T00:02:46.263Z,3.90
2018-05-09T00:05:12.507Z,3.60
2018-05-09T00:07:38.737Z,4.30
2018-05-09T00:10:04.993Z,4.03
2018-05-09T00:12:32.025Z,5.40
2018-05-09T00:14:58.251Z,4.33
2018-05-09T00:17:24.506Z,5.50
2018-05-09T00:19:50.748Z,4.50
2018-05-09T00:22:16.999Z,4.10
2018-05-09T00:24:43.271Z,4.20
2018-05-09T00:27:09.486Z,4.60
2018-05-09T00:29:35.705Z,4.63
2018-05-09T00:32:02.203Z,4.90
2018-05-09T00:34:28.443Z,6.43
2018-05-09T00:36:54.666Z,5.07
2018-05-09T00:39:21.660Z,4.40
2018-05-09T00:41:47.924Z,4.20
2018-05-09T00:44:14.158Z,3.80
2018-05-09T00:46:40.402Z,3.80
2018-05-09T00:49:06.640Z,5.23
2018-05-09T00:51:32.856Z,4.40
2018-05-09T00:54:11.369Z,5.00
2018-05-09T00:56:37.609Z,3.70
2018-05-09T00:59:04.576Z,4.87
2018-05-09T01:01:30.859Z,5.17
2018-05-09T01:03:57.079Z,4.47
2018-05-09T01:06:23.297Z,4.30
2018-05-09T01:08:56.383Z,4.87
2018-05-09T01:11:23.369Z,6.03
2018-05-09T01:13:49.666Z,4.70
2018-05-09T01:16:15.952Z,4.97
2018-05-09T01:18:42.162Z,5.20
2018-05-09T01:21:09.143Z,4.67
2018-05-09T01:23:35.372Z,4.70
2018-05-09T01:26:01.590Z,4.40
2018-05-09T01:28:27.798Z,4.30
2018-05-09T01:30:54.061Z,5.20
2018-05-09T01:33:20.598Z,4.73
2018-05-09T01:35:46.820Z,4.40
2018-05-09T01:38:13.080Z,5.13
2018-05-09T01:40:39.294Z,4.78
2018-05-09T01:43:05.529Z,4.50
2018-05-09T01:45:31.782Z,4.90
2018-05-09T01:47:58.026Z,5.77
2018-05-09T01:50:24.257Z,5.87
2018-05-09T01:52:50.491Z,5.53
2018-05-09T01:55:16.747Z,5.95
2018-05-09T01:57:42.986Z,5.40
2018-05-09T02:00:09.226Z,5.50
2018-05-09T02:02:35.457Z,5.90
2018-05-09T02:05:01.685Z,5.93
2018-05-09T02:07:27.938Z,5.62
2018-05-09T02:09:54.167Z,5.82
2018-05-09T02:12:20.459Z,5.40
2018-05-09T02:14:46.703Z,5.60
2018-05-09T02:17:12.925Z,6.10
2018-05-09T02:19:39.153Z,6.10
2018-05-09T02:22:05.517Z,5.45
2018-05-09T02:24:31.742Z,6.05
2018-05-09T02:26:58.015Z,5.80
2018-05-09T02:29:24.259Z,5.70
2018-05-09T02:31:50.473Z,6.18
2018-05-09T02:34:16.915Z,6.25
2018-05-09T02:36:43.168Z,5.50
2018-05-09T02:39:09.384Z,7.35
2018-05-09T02:41:35.616Z,6.70
2018-05-09T02:44:01.859Z,5.90
2018-05-09T02:46:28.108Z,6.80
2018-05-09T02:48:54.325Z,6.22
2018-05-09T02:51:20.629Z,6.10
2018-05-09T02:53:47.596Z,6.18
2018-05-09T02:56:14.559Z,6.37
2018-05-09T02:58:40.804Z,6.25
2018-05-09T03:01:07.025Z,5.65
2018-05-09T03:03:33.994Z,5.90
2018-05-09T03:06:00.230Z,6.12
2018-05-09T03:08:27.200Z,9.65
2018-05-09T03:10:53.436Z,9.80
2018-05-09T03:13:19.757Z,9.02
2018-05-09T03:15:45.963Z,9.82
2018-05-09T03:18:12.190Z,8.20
2018-05-09T03:20:38.431Z,8.02
2018-05-09T03:23:04.716Z,6.10
2018-05-09T03:25:31.693Z,6.20
2018-05-09T03:27:57.970Z,6.30
2018-05-09T03:30:24.200Z,5.78
2018-05-09T03:32:50.412Z,7.00
2018-05-09T03:35:17.555Z,6.43
2018-05-09T03:37:43.771Z,6.35
2018-05-09T03:40:10.030Z,6.40
2018-05-09T03:42:36.261Z,6.87
2018-05-09T03:45:02.525Z,5.95
2018-05-09T03:47:28.726Z,7.22
2018-05-09T03:49:54.974Z,6.75
2018-05-09T03:52:21.183Z,6.70
2018-05-09T03:54:47.414Z,6.25
2018-05-09T03:57:13.638Z,7.00
2018-05-09T03:59:40.600Z,6.22
2018-05-09T04:02:19.922Z,6.45
2018-05-09T04:04:58.395Z,6.43
2018-05-09T04:07:36.782Z,6.75
2018-05-09T04:10:03.771Z,7.12
2018-05-09T04:12:30.060Z,7.12
2018-05-09T04:14:56.429Z,7.50
2018-05-09T04:17:23.278Z,8.90
2018-05-09T04:19:49.492Z,11.10
2018-05-09T04:22:15.741Z,11.80
2018-05-09T04:24:42.004Z,10.95
2018-05-09T04:27:08.225Z,10.10
2018-05-09T04:29:34.478Z,10.98
2018-05-09T04:32:00.700Z,10.65
2018-05-09T04:34:26.916Z,11.63
2018-05-09T04:36:53.524Z,11.18
2018-05-09T04:39:19.748Z,10.45
2018-05-09T04:41:46.001Z,8.15
2018-05-09T04:44:13.005Z,7.95
2018-05-09T04:46:39.216Z,7.97
2018-05-09T04:49:05.433Z,6.97
2018-05-09T04:51:32.401Z,7.57
2018-05-09T04:53:59.355Z,8.45
2018-05-09T04:56:26.351Z,10.07
2018-05-09T04:58:52.565Z,9.70
2018-05-09T05:01:19.542Z,8.88
2018-05-09T05:03:45.764Z,9.45
2018-05-09T05:06:13.082Z,11.00
2018-05-09T05:08:40.093Z,10.48
2018-05-09T05:11:06.329Z,11.52
2018-05-09T05:13:32.580Z,10.50
2018-05-09T05:15:58.821Z,11.30
2018-05-09T05:18:25.080Z,12.37
2018-05-09T05:20:51.304Z,10.70
2018-05-09T05:23:17.574Z,13.13
2018-05-09T05:25:43.830Z,11.85
2018-05-09T05:28:10.119Z,10.68
2018-05-09T05:30:36.363Z,9.48
2018-05-09T05:33:02.628Z,9.85
2018-05-09T05:35:28.898Z,9.98
2018-05-09T05:37:55.178Z,12.03
2018-05-09T05:40:22.126Z,10.60
2018-05-09T05:42:49.130Z,9.80
2018-05-09T05:45:15.503Z,9.00
2018-05-09T05:47:41.602Z,9.57
2018-05-09T05:50:07.812Z,10.27
2018-05-09T05:52:34.794Z,9.13
2018-05-09T05:55:01.079Z,8.40
2018-05-09T05:57:27.279Z,8.73
2018-05-09T05:59:53.490Z,11.07
2018-05-09T06:02:20.444Z,11.63
2018-05-09T06:04:47.420Z,9.87
2018-05-09T06:07:13.635Z,7.93
2018-05-09T06:09:40.624Z,9.33
2018-05-09T06:12:06.856Z,8.70
2018-05-09T06:14:33.167Z,12.60
2018-05-09T06:16:59.371Z,10.30
2018-05-09T06:19:25.629Z,9.23
2018-05-09T06:24:21.773Z,8.07
2018-05-09T06:26:48.015Z,8.23
2018-05-09T06:29:14.246Z,8.47
2018-05-09T06:31:40.475Z,8.73
2018-05-09T06:34:06.722Z,8.43
2018-05-09T06:36:33.189Z,9.00
2018-05-09T06:38:59.498Z,8.77
2018-05-09T06:41:25.724Z,7.90
2018-05-09T06:43:52.694Z,8.60
2018-05-09T06:46:19.690Z,6.60
2018-05-09T06:48:45.956Z,7.30
2018-05-09T06:51:12.190Z,6.80
2018-05-09T06:53:38.408Z,6.93
2018-05-09T06:56:04.663Z,5.70
2018-05-09T06:58:30.893Z,6.20
2018-05-09T07:00:57.164Z,6.90
2018-05-09T07:03:23.426Z,7.13
2018-05-09T07:05:49.683Z,8.33
2018-05-09T07:08:15.893Z,6.40
2018-05-09T07:10:42.158Z,7.23
2018-05-09T07:13:08.427Z,7.57
2018-05-09T07:15:34.685Z,7.20
2018-05-09T07:18:01.031Z,7.73
2018-05-09T07:20:27.294Z,7.67
2018-05-09T07:22:54.253Z,7.67
2018-05-09T07:25:20.501Z,7.97
2018-05-09T07:27:47.463Z,8.00
2018-05-09T07:30:14.464Z,7.10
2018-05-09T07:32:40.683Z,7.73
2018-05-09T07:35:06.925Z,6.10
2018-05-09T07:37:33.155Z,7.17
2018-05-09T07:39:59.635Z,7.20
2018-05-09T07:42:25.887Z,7.50
2018-05-09T07:44:52.113Z,7.47
2018-05-09T07:47:18.346Z,7.07
2018-05-09T07:49:44.722Z,7.53
2018-05-09T07:52:10.961Z,6.80
2018-05-09T07:54:37.199Z,6.57
2018-05-09T07:57:03.459Z,6.77
2018-05-09T07:59:29.688Z,6.67
2018-05-09T08:01:56.970Z,5.87
2018-05-09T08:04:23.953Z,5.10
2018-05-09T08:06:50.184Z,5.50
2018-05-09T08:09:17.120Z,6.60
2018-05-09T08:11:43.342Z,5.63
2018-05-09T08:14:09.680Z,6.20
2018-05-09T08:16:36.664Z,5.27
2018-05-09T08:19:03.634Z,5.40
2018-05-09T08:21:30.609Z,5.70
2018-05-09T08:23:56.847Z,6.07
2018-05-09T08:26:23.093Z,7.43
2018-05-09T08:28:49.394Z,6.57
2018-05-09T08:31:15.594Z,5.30
2018-05-09T08:33:41.823Z,4.80
2018-05-09T08:36:08.069Z,5.60
2018-05-09T08:38:34.285Z,5.50
2018-05-09T08:41:00.737Z,4.80
2018-05-09T08:43:27.109Z,5.00
2018-05-09T08:45:54.000Z,4.90
2018-05-09T08:48:20.263Z,4.80
2018-05-09T08:50:46.500Z,5.33
2018-05-09T08:53:12.755Z,5.13
2018-05-09T08:55:38.959Z,5.20
2018-05-09T08:58:05.201Z,4.33
2018-05-09T09:00:31.430Z,4.27
2018-05-09T09:02:57.664Z,6.33
2018-05-09T09:05:23.878Z,5.20
2018-05-09T09:07:50.162Z,4.90
2018-05-09T09:10:16.530Z,4.47
2018-05-09T09:12:43.559Z,4.60
2018-05-09T09:15:09.773Z,5.07
2018-05-09T09:17:36.008Z,7.27
2018-05-09T09:20:02.298Z,6.90
2018-05-09T09:22:28.541Z,5.60
2018-05-09T09:24:54.773Z,4.97
2018-05-09T09:27:21.011Z,4.53
2018-05-09T09:29:47.251Z,5.30
2018-05-09T09:32:13.480Z,5.00
2018-05-09T09:34:39.709Z,4.77
2018-05-09T09:37:05.926Z,4.70
2018-05-09T09:39:32.156Z,5.30
2018-05-09T09:41:58.796Z,5.80
2018-05-09T09:44:25.026Z,4.50
2018-05-09T09:46:51.250Z,4.70
2018-05-09T09:49:18.272Z,4.83
2018-05-09T09:51:44.512Z,5.50
2018-05-09T09:54:10.730Z,5.10
2018-05-09T09:56:36.950Z,5.20
2018-05-09T09:59:03.205Z,4.73
2018-05-09T10:01:29.501Z,5.07
2018-05-09T10:03:55.733Z,4.00
2018-05-09T10:06:21.965Z,4.20
2018-05-09T10:08:48.188Z,4.80
2018-05-09T10:11:14.426Z,4.30
2018-05-09T10:13:40.700Z,3.93
2018-05-09T10:16:06.961Z,4.20
2018-05-09T10:18:33.157Z,4.23
2018-05-09T10:20:59.386Z,4.30
2018-05-09T10:23:25.586Z,4.50
2018-05-09T10:25:51.825Z,4.13
2018-05-09T10:28:18.029Z,4.27
2018-05-09T10:30:44.233Z,3.70
2018-05-09T10:33:11.205Z,3.63
2018-05-09T10:35:37.427Z,3.33
2018-05-09T10:38:03.707Z,3.80
2018-05-09T10:40:29.985Z,2.93
2018-05-09T10:42:57.165Z,3.40
2018-05-09T10:45:23.401Z,3.73
2018-05-09T10:47:49.643Z,3.83
2018-05-09T10:50:15.900Z,3.60
2018-05-09T10:52:42.116Z,4.30
2018-05-09T10:55:09.083Z,4.27
2018-05-09T10:57:36.068Z,4.27
2018-05-09T11:00:02.359Z,3.90
2018-05-09T11:02:29.371Z,4.00
2018-05-09T11:04:55.617Z,4.20
2018-05-09T11:07:21.864Z,3.50
2018-05-09T11:09:48.120Z,3.70
2018-05-09T11:12:15.937Z,4.13
2018-05-09T11:14:42.894Z,3.80
2018-05-09T11:17:09.122Z,4.37
2018-05-09T11:19:35.345Z,4.47
2018-05-09T11:22:01.574Z,3.70
2018-05-09T11:24:27.807Z,3.17
2018-05-09T11:26:54.037Z,3.50
2018-05-09T11:29:20.260Z,4.00
2018-05-09T11:31:46.499Z,3.20
2018-05-09T11:34:12.731Z,3.53
2018-05-09T11:36:38.971Z,3.80
2018-05-09T11:39:05.247Z,4.10
2018-05-09T11:41:31.473Z,3.60
2018-05-09T11:43:57.762Z,3.20
2018-05-09T11:46:24.730Z,3.10
2018-05-09T11:48:51.708Z,4.50
2018-05-09T11:51:17.967Z,3.80
2018-05-09T11:53:44.212Z,3.50
2018-05-09T11:56:10.440Z,3.27
2018-05-09T11:58:36.662Z,2.87
2018-05-09T12:01:02.910Z,2.83
2018-05-09T12:03:29.135Z,3.93
2018-05-09T12:05:56.116Z,3.47
2018-05-09T12:08:22.362Z,3.27
2018-05-09T12:10:48.741Z,3.47
2018-05-09T12:13:14.891Z,3.43
2018-05-09T12:15:41.142Z,3.53
2018-05-09T12:18:08.137Z,3.47
2018-05-09T12:20:34.400Z,3.40
2018-05-09T12:23:01.348Z,3.90
2018-05-09T12:25:27.543Z,3.47
2018-05-09T12:27:54.491Z,3.27
2018-05-09T12:30:20.724Z,3.23
2018-05-09T12:32:46.963Z,2.87
2018-05-09T12:35:13.209Z,2.90
2018-05-09T12:37:39.441Z,2.70
2018-05-09T12:40:05.683Z,3.13
2018-05-09T12:42:31.912Z,2.77
2018-05-09T12:44:58.380Z,3.03
2018-05-09T12:47:25.342Z,3.23
2018-05-09T12:49:51.555Z,3.60
2018-05-09T12:52:17.835Z,3.07
2018-05-09T12:54:44.793Z,3.53
2018-05-09T12:57:11.759Z,2.90
2018-05-09T12:59:38.003Z,2.87
2018-05-09T13:02:04.221Z,3.00
2018-05-09T13:04:31.176Z,2.83
2018-05-09T13:06:57.416Z,2.70
2018-05-09T13:09:23.647Z,2.80
2018-05-09T13:11:49.875Z,2.87
2018-05-09T13:14:16.128Z,2.80
2018-05-09T13:16:42.378Z,3.70
2018-05-09T13:19:08.590Z,2.77
2018-05-09T13:21:34.848Z,3.10
2018-05-09T13:24:01.084Z,3.10
2018-05-09T13:26:27.326Z,2.87
2018-05-09T13:28:53.571Z,2.80
2018-05-09T13:31:19.816Z,3.00
2018-05-09T13:33:46.032Z,2.73
2018-05-09T13:36:12.268Z,3.50
2018-05-09T13:38:38.500Z,3.53
2018-05-09T13:41:04.710Z,3.23
2018-05-09T13:43:30.940Z,2.60
2018-05-09T13:45:58.181Z,3.47
2018-05-09T13:48:24.372Z,3.10
2018-05-09T13:50:50.607Z,3.13
2018-05-09T13:53:16.875Z,2.60
2018-05-09T13:55:43.119Z,3.20
2018-05-09T13:58:09.374Z,2.80
2018-05-09T14:00:35.865Z,2.87
2018-05-09T14:03:02.104Z,2.90
2018-05-09T14:05:28.330Z,3.03
2018-05-09T14:07:55.292Z,2.90
2018-05-09T14:10:21.539Z,3.13
2018-05-09T14:12:47.841Z,3.40
2018-05-09T14:15:14.073Z,2.40
2018-05-09T14:17:40.287Z,2.73
2018-05-09T14:20:06.540Z,2.60
2018-05-09T14:22:32.764Z,2.90
2018-05-09T14:24:59.016Z,3.00
2018-05-09T14:27:25.970Z,3.10
2018-05-09T14:29:52.203Z,3.50
2018-05-09T14:32:18.499Z,3.00
2018-05-09T14:34:44.687Z,3.20
2018-05-09T14:37:10.924Z,4.20
2018-05-09T14:39:37.217Z,4.90
2018-05-09T14:42:03.465Z,4.27
2018-05-09T14:44:30.427Z,4.07
2018-05-09T14:46:57.707Z,4.43
2018-05-09T14:49:23.921Z,4.33
2018-05-09T14:51:50.178Z,5.40
2018-05-09T14:54:17.143Z,5.90
2018-05-09T14:56:43.383Z,6.37
2018-05-09T14:59:09.625Z,5.73
2018-05-09T15:01:35.859Z,4.80
2018-05-09T15:04:02.823Z,4.77
2018-05-09T15:06:29.052Z,5.40
2018-05-09T15:08:56.026Z,4.27
2018-05-09T15:11:22.258Z,3.87
2018-05-09T15:13:49.258Z,3.90
2018-05-09T15:16:15.472Z,3.97
2018-05-09T15:18:41.730Z,4.77
2018-05-09T15:21:07.992Z,3.80
2018-05-09T15:23:34.222Z,3.80
2018-05-09T15:26:00.454Z,4.53
2018-05-09T15:28:26.694Z,3.77
2018-05-09T15:30:52.935Z,3.50
2018-05-09T15:33:19.187Z,4.07
2018-05-09T15:35:45.432Z,3.60
2018-05-09T15:38:11.676Z,3.57
2018-05-09T15:40:37.900Z,3.50
2018-05-09T15:43:04.126Z,3.10
2018-05-09T15:45:30.375Z,3.67
2018-05-09T15:47:57.669Z,3.30
2018-05-09T15:50:23.920Z,3.00
2018-05-09T15:52:50.152Z,3.07
2018-05-09T15:55:16.426Z,3.43
2018-05-09T15:57:43.400Z,3.40
2018-05-09T16:00:09.641Z,2.90
2018-05-09T16:02:35.850Z,3.40
2018-05-09T16:05:02.125Z,3.23
2018-05-09T16:07:28.341Z,3.27
2018-05-09T16:09:55.320Z,2.87
2018-05-09T16:12:21.612Z,2.73
2018-05-09T16:14:47.879Z,2.90
2018-05-09T16:17:14.888Z,3.50
2018-05-09T16:19:41.120Z,3.17
2018-05-09T16:22:07.347Z,3.33
2018-05-09T16:24:34.314Z,3.40
2018-05-09T16:27:01.294Z,2.87
2018-05-09T16:29:27.496Z,2.63
2018-05-09T16:31:54.474Z,2.87
2018-05-09T16:34:20.702Z,3.40
2018-05-09T16:36:46.951Z,2.93
2018-05-09T16:39:13.172Z,2.67
2018-05-09T16:41:39.398Z,2.90
2018-05-09T16:44:05.611Z,2.70
2018-05-09T16:46:31.866Z,2.90
2018-05-09T16:48:59.057Z,3.17
2018-05-09T16:51:25.307Z,2.87
2018-05-09T16:53:51.529Z,3.00
2018-05-09T16:56:18.519Z,2.93
2018-05-09T16:58:44.743Z,2.80
2018-05-09T17:01:11.041Z,3.10
2018-05-09T17:03:37.207Z,2.60
2018-05-09T17:06:04.201Z,2.93
2018-05-09T17:08:30.430Z,2.80
2018-05-09T17:10:56.665Z,3.23
2018-05-09T17:13:22.896Z,2.40
2018-05-09T17:15:49.142Z,2.73
2018-05-09T17:18:15.411Z,2.50
2018-05-09T17:20:41.619Z,3.00
2018-05-09T17:23:07.875Z,3.33
2018-05-09T17:25:34.084Z,3.30
2018-05-09T17:28:01.073Z,3.53
2018-05-09T17:30:27.319Z,3.00
2018-05-09T17:32:53.543Z,4.10
2018-05-09T17:35:19.825Z,3.40
2018-05-09T17:37:46.043Z,4.30
2018-05-09T17:40:12.244Z,3.30
2018-05-09T17:42:39.318Z,3.20
2018-05-09T17:45:05.487Z,3.30
2018-05-09T17:47:31.727Z,3.10
2018-05-09T17:49:58.181Z,3.10
2018-05-09T17:52:24.421Z,3.33
2018-05-09T17:54:50.657Z,4.53
2018-05-09T17:57:16.888Z,4.77
2018-05-09T17:59:43.242Z,4.00
2018-05-09T18:02:09.518Z,3.97
2018-05-09T18:04:35.769Z,4.10
2018-05-09T18:07:02.751Z,4.70
2018-05-09T18:09:28.986Z,3.73
2018-05-09T18:11:55.985Z,4.50
2018-05-09T18:14:22.260Z,4.00
2018-05-09T18:16:48.472Z,3.70
2018-05-09T18:19:14.729Z,4.40
2018-05-09T18:21:40.963Z,4.80
2018-05-09T18:24:07.198Z,4.77
2018-05-09T18:26:33.453Z,8.80
2018-05-09T18:28:59.691Z,6.43
2018-05-09T18:31:27.419Z,4.70
2018-05-09T18:33:53.690Z,4.40
2018-05-09T18:36:19.949Z,4.47
2018-05-09T18:38:46.204Z,3.77
2018-05-09T18:41:13.302Z,3.90
2018-05-09T18:43:39.559Z,3.70
2018-05-09T18:46:05.802Z,3.27
2018-05-09T18:48:32.049Z,3.80
2018-05-09T18:50:58.330Z,3.80
2018-05-09T18:53:24.585Z,3.70
2018-05-09T18:55:51.573Z,3.87
2018-05-09T18:58:17.835Z,4.17
2018-05-09T19:00:44.090Z,4.90
2018-05-09T19:03:10.379Z,3.70
2018-05-09T19:05:36.621Z,3.67
2018-05-09T19:08:02.874Z,23.77
2018-05-09T19:10:29.164Z,5.30
2018-05-09T19:12:55.574Z,5.10
2018-05-09T19:15:21.864Z,6.60
2018-05-09T19:17:48.144Z,13.20
2018-05-09T19:20:14.448Z,14.60
2018-05-09T19:22:40.714Z,14.30
2018-05-09T19:25:07.014Z,16.37
2018-05-09T19:27:33.320Z,12.50
2018-05-09T19:29:59.542Z,18.43
2018-05-09T19:32:25.807Z,8.70
2018-05-09T19:34:52.043Z,5.70
2018-05-09T19:37:18.300Z,5.73
2018-05-09T19:39:44.581Z,9.57
2018-05-09T19:42:11.587Z,8.63
2018-05-09T19:44:37.867Z,10.50
2018-05-09T19:47:04.104Z,6.10
2018-05-09T19:49:30.376Z,6.60
2018-05-09T19:51:57.613Z,6.10
2018-05-09T19:54:23.925Z,10.80
2018-05-09T19:56:50.182Z,8.90
2018-05-09T19:59:16.549Z,7.50
2018-05-09T20:01:42.823Z,7.40
2018-05-09T20:04:09.113Z,7.87
2018-05-09T20:06:35.362Z,7.30
2018-05-09T20:09:01.693Z,8.00
2018-05-09T20:11:27.952Z,9.53
2018-05-09T20:13:55.175Z,9.20
2018-05-09T20:16:21.328Z,7.07
2018-05-09T20:18:47.645Z,6.67
2018-05-09T20:21:13.871Z,5.53
2018-05-09T20:23:40.183Z,5.50
2018-05-09T20:26:06.389Z,5.23
2018-05-09T20:28:32.662Z,4.70
2018-05-09T20:31:18.106Z,5.90
2018-05-09T20:33:45.082Z,5.77
2018-05-09T20:36:11.330Z,6.90
2018-05-09T20:38:37.566Z,7.30
2018-05-09T20:41:03.858Z,7.20
2018-05-09T20:43:30.074Z,7.13
2018-05-09T20:45:57.099Z,5.90
2018-05-09T20:48:23.354Z,7.13
2018-05-09T20:50:49.666Z,7.33
2018-05-09T20:53:15.976Z,6.70
2018-05-09T20:55:42.190Z,8.00
2018-05-09T20:58:08.405Z,12.40
2018-05-09T21:00:34.653Z,7.90
2018-05-09T21:03:00.914Z,8.40
2018-05-09T21:05:27.197Z,14.40
2018-05-09T21:07:55.225Z,29.23
2018-05-09T21:10:21.469Z,19.30
2018-05-09T21:12:47.834Z,15.10
2018-05-09T21:15:14.818Z,12.17
2018-05-09T21:17:41.054Z,8.03
2018-05-09T21:20:07.393Z,7.63
2018-05-09T21:22:33.610Z,6.80
2018-05-09T21:24:59.860Z,7.30
2018-05-09T21:27:26.130Z,7.00
2018-05-09T21:29:52.352Z,6.50
2018-05-09T21:32:18.630Z,7.20
2018-05-09T21:34:44.871Z,7.27
2018-05-09T21:37:11.107Z,7.23
2018-05-09T21:39:37.324Z,17.00
2018-05-09T21:42:03.601Z,15.90
2018-05-09T21:44:29.831Z,7.17
2018-05-09T21:46:56.071Z,6.00
2018-05-09T21:49:22.305Z,6.50
2018-05-09T21:51:48.559Z,6.83
2018-05-09T21:54:14.814Z,6.77
2018-05-09T21:56:41.059Z,6.37
2018-05-09T21:59:07.287Z,6.40
2018-05-09T22:01:33.543Z,6.63
2018-05-09T22:03:59.787Z,6.27
2018-05-09T22:06:26.019Z,6.07
2018-05-09T22:08:52.275Z,6.27
2018-05-09T22:11:18.502Z,6.53
2018-05-09T22:13:44.834Z,6.00
2018-05-09T22:16:11.092Z,6.13
2018-05-09T22:18:37.314Z,6.60
2018-05-09T22:21:03.526Z,6.97
2018-05-09T22:23:29.776Z,6.70
2018-05-09T22:25:55.994Z,7.00
2018-05-09T22:28:22.237Z,6.07
2018-05-09T22:30:48.475Z,7.33
2018-05-09T22:33:14.713Z,6.60
2018-05-09T22:35:40.927Z,7.07
2018-05-09T22:38:07.906Z,5.60
2018-05-09T22:40:34.159Z,5.83
2018-05-09T22:43:00.380Z,6.33
2018-05-09T22:45:27.354Z,6.77
2018-05-09T22:47:53.567Z,6.00
2018-05-09T22:50:20.577Z,6.43
2018-05-09T22:52:46.827Z,6.87
2018-05-09T22:55:13.082Z,6.30
2018-05-09T22:57:39.318Z,6.63
2018-05-09T23:00:05.577Z,5.40
2018-05-09T23:02:31.851Z,5.70
2018-05-09T23:04:58.135Z,6.20
2018-05-09T23:07:24.362Z,6.77
2018-05-09T23:09:50.605Z,6.80
2018-05-09T23:12:19.515Z,7.30
2018-05-09T23:14:45.761Z,7.30
2018-05-09T23:17:11.986Z,7.17
2018-05-09T23:19:38.259Z,6.80
2018-05-09T23:22:04.487Z,6.97
2018-05-09T23:24:30.755Z,6.80
2018-05-09T23:26:56.959Z,7.30
2018-05-09T23:29:23.172Z,7.70
2018-05-09T23:31:49.405Z,7.47
2018-05-09T23:34:15.656Z,7.23
2018-05-09T23:36:41.877Z,7.80
2018-05-09T23:39:08.082Z,7.60
2018-05-09T23:41:34.319Z,8.10
2018-05-09T23:44:00.542Z,8.73
2018-05-09T23:46:26.777Z,8.83
2018-05-09T23:48:53.005Z,8.33
2018-05-09T23:51:19.244Z,7.83
2018-05-09T23:53:45.658Z,7.17
2018-05-09T23:56:12.624Z,7.33
2018-05-09T23:58:38.856Z,8.20
